createdAt,value
2022-12-14T00:01:56.850Z,67.32
2022-12-14T00:04:25.003Z,67.31
2022-12-14T00:06:53.140Z,67.25
2022-12-14T00:09:21.402Z,67.37
2022-12-14T00:11:50.396Z,67.60
2022-12-14T00:14:18.569Z,67.81
2022-12-14T00:16:46.633Z,67.61
2022-12-14T00:19:15.455Z,67.33
2022-12-14T00:21:43.523Z,67.30
2022-12-14T00:24:11.597Z,67.50
2022-12-14T00:26:39.948Z,67.20
2022-12-14T00:29:08.125Z,67.24
2022-12-14T00:31:36.628Z,67.33
2022-12-14T00:34:04.986Z,67.26
2022-12-14T00:36:33.062Z,67.25
2022-12-14T00:39:01.337Z,67.40
2022-12-14T00:41:29.509Z,67.23
2022-12-14T00:43:57.691Z,67.35
2022-12-14T00:46:25.866Z,67.21
2022-12-14T00:48:54.146Z,67.40
2022-12-14T00:51:23.223Z,67.21
2022-12-14T00:53:51.412Z,67.48
2022-12-14T00:56:19.479Z,67.37
2022-12-14T00:58:51.703Z,67.42
2022-12-14T01:01:21.166Z,67.45
2022-12-14T01:03:50.174Z,67.57
2022-12-14T01:06:20.564Z,67.66
2022-12-14T01:08:49.459Z,67.84
2022-12-14T01:11:17.651Z,67.82
2022-12-14T01:13:49.291Z,67.69
2022-12-14T01:16:18.397Z,67.87
2022-12-14T01:18:46.632Z,67.63
2022-12-14T01:21:16.340Z,67.43
2022-12-14T01:23:45.740Z,67.34
2022-12-14T01:26:16.639Z,67.33
2022-12-14T01:28:45.313Z,67.41
2022-12-14T01:31:15.547Z,67.60
2022-12-14T01:33:44.532Z,67.76
2022-12-14T01:36:15.289Z,67.72
2022-12-14T01:38:44.170Z,67.78
2022-12-14T01:41:23.920Z,67.75
2022-12-14T01:43:54.188Z,67.63
2022-12-14T01:46:27.523Z,67.62
2022-12-14T01:49:01.964Z,67.61
2022-12-14T01:51:31.685Z,67.62
2022-12-14T01:54:03.583Z,67.45
2022-12-14T01:56:35.723Z,67.56
2022-12-14T01:59:12.189Z,67.40
2022-12-14T02:01:40.945Z,67.30
2022-12-14T02:04:11.263Z,67.46
2022-12-14T02:06:43.513Z,67.40
2022-12-14T02:09:19.628Z,67.33
2022-12-14T02:11:55.796Z,67.27
2022-12-14T02:14:24.431Z,67.40
2022-12-14T02:16:53.608Z,67.41
2022-12-14T02:19:21.948Z,67.24
2022-12-14T02:22:17.405Z,67.29
2022-12-14T02:25:21.362Z,67.49
2022-12-14T02:28:10.805Z,67.36
2022-12-14T02:30:40.860Z,67.35
2022-12-14T02:33:28.553Z,67.17
2022-12-14T02:36:02.048Z,67.00
2022-12-14T02:38:45.645Z,67.02
2022-12-14T02:41:21.238Z,67.11
2022-12-14T02:44:01.104Z,67.00
2022-12-14T02:46:35.200Z,66.80
2022-12-14T02:49:10.481Z,66.98
2022-12-14T02:51:43.900Z,67.18
2022-12-14T02:54:24.292Z,67.10
2022-12-14T02:56:59.535Z,67.00
2022-12-14T02:59:28.513Z,66.99
2022-12-14T03:01:57.518Z,66.91
2022-12-14T03:04:25.827Z,66.94
2022-12-14T03:07:02.133Z,67.15
2022-12-14T03:09:32.377Z,67.03
2022-12-14T03:12:06.503Z,67.16
2022-12-14T03:14:41.031Z,67.28
2022-12-14T03:17:19.470Z,67.18
2022-12-14T03:19:53.135Z,67.08
2022-12-14T03:22:26.211Z,67.27
2022-12-14T03:24:58.424Z,67.34
2022-12-14T03:27:31.298Z,67.36
2022-12-14T03:30:02.677Z,67.12
2022-12-14T03:32:33.761Z,67.37
2022-12-14T03:35:08.000Z,67.17
2022-12-14T03:37:42.200Z,67.22
2022-12-14T03:40:13.854Z,67.13
2022-12-14T03:42:56.950Z,67.07
2022-12-14T03:45:31.515Z,67.15
2022-12-14T03:48:10.970Z,67.01
2022-12-14T03:50:43.190Z,67.08
2022-12-14T03:53:14.676Z,66.80
2022-12-14T03:55:50.824Z,66.86
2022-12-14T03:58:34.513Z,66.99
2022-12-14T04:01:10.812Z,66.81
2022-12-14T04:03:50.062Z,66.99
2022-12-14T04:06:26.566Z,66.93
2022-12-14T04:09:04.136Z,66.97
2022-12-14T04:11:57.485Z,66.63
2022-12-14T04:14:49.851Z,66.81
2022-12-14T04:17:43.816Z,66.58
2022-12-14T04:20:16.719Z,66.65
2022-12-14T04:22:49.622Z,66.84
2022-12-14T04:25:39.281Z,66.84
2022-12-14T04:28:33.045Z,66.67
2022-12-14T04:31:07.005Z,66.79
2022-12-14T04:33:47.840Z,66.68
2022-12-14T04:36:21.961Z,66.62
2022-12-14T04:38:55.772Z,66.68
2022-12-14T04:41:29.603Z,66.49
2022-12-14T04:44:03.068Z,66.69
2022-12-14T04:46:40.371Z,66.58
2022-12-14T04:49:18.586Z,66.69
2022-12-14T04:51:53.435Z,66.56
2022-12-14T04:54:26.563Z,66.79
2022-12-14T04:57:00.801Z,66.85
2022-12-14T04:59:29.814Z,66.66
2022-12-14T05:02:09.522Z,66.88
2022-12-14T05:04:57.000Z,66.80
2022-12-14T05:07:37.854Z,66.90
2022-12-14T05:10:11.192Z,66.78
2022-12-14T05:12:46.648Z,66.71
2022-12-14T05:15:19.274Z,66.70
2022-12-14T05:17:47.947Z,66.44
2022-12-14T05:20:18.490Z,66.53
2022-12-14T05:22:46.574Z,66.73
2022-12-14T05:25:15.278Z,66.90
2022-12-14T05:27:43.837Z,66.72
2022-12-14T05:30:13.886Z,66.81
2022-12-14T05:32:42.033Z,66.97
2022-12-14T05:35:13.273Z,66.89
2022-12-14T05:37:42.092Z,66.78
2022-12-14T05:40:12.536Z,66.73
2022-12-14T05:42:44.742Z,66.76
2022-12-14T05:45:15.982Z,66.62
2022-12-14T05:47:44.452Z,66.72
2022-12-14T05:50:12.561Z,66.90
2022-12-14T05:52:40.690Z,66.87
2022-12-14T05:55:10.206Z,67.01
2022-12-14T05:57:38.692Z,66.97
2022-12-14T06:00:09.146Z,67.18
2022-12-14T06:02:37.275Z,67.18
2022-12-14T06:05:06.510Z,67.10
2022-12-14T06:07:34.573Z,67.32
2022-12-14T06:10:02.917Z,67.12
2022-12-14T06:12:31.321Z,67.20
2022-12-14T06:14:59.553Z,67.03
2022-12-14T06:17:27.783Z,67.09
2022-12-14T06:19:55.772Z,67.16
2022-12-14T06:22:24.508Z,67.13
2022-12-14T06:24:53.185Z,66.88
2022-12-14T06:27:21.295Z,67.09
2022-12-14T06:29:49.747Z,66.94
2022-12-14T06:32:17.848Z,66.95
2022-12-14T06:34:46.537Z,67.00
2022-12-14T06:37:15.497Z,67.37
2022-12-14T06:39:43.890Z,67.07
2022-12-14T06:42:11.992Z,67.07
2022-12-14T06:44:40.021Z,67.06
2022-12-14T06:47:08.103Z,67.24
2022-12-14T06:49:36.257Z,67.14
2022-12-14T06:52:04.681Z,67.01
2022-12-14T06:54:32.808Z,67.06
2022-12-14T06:57:01.077Z,67.14
2022-12-14T06:59:29.709Z,67.07
2022-12-14T07:01:57.859Z,67.07
2022-12-14T07:04:26.136Z,67.23
2022-12-14T07:06:54.186Z,67.26
2022-12-14T07:09:22.324Z,67.29
2022-12-14T07:11:50.952Z,67.36
2022-12-14T07:14:19.034Z,67.40
2022-12-14T07:16:48.597Z,67.47
2022-12-14T07:19:18.055Z,67.90
2022-12-14T07:21:46.355Z,67.91
2022-12-14T07:24:14.558Z,67.79
2022-12-14T07:26:42.610Z,67.79
2022-12-14T07:29:11.634Z,67.86
2022-12-14T07:31:39.800Z,67.88
2022-12-14T07:34:11.797Z,67.90
2022-12-14T07:36:40.096Z,67.94
2022-12-14T07:39:10.175Z,68.37
2022-12-14T07:41:38.243Z,68.34
2022-12-14T07:44:06.406Z,67.76
2022-12-14T07:46:34.963Z,67.38
2022-12-14T07:49:03.772Z,66.98
2022-12-14T07:51:35.212Z,66.69
2022-12-14T07:54:05.666Z,66.63
2022-12-14T07:56:35.749Z,66.33
2022-12-14T07:59:07.683Z,65.86
2022-12-14T08:01:37.374Z,65.30
2022-12-14T08:04:08.213Z,64.62
2022-12-14T08:06:37.955Z,63.22
2022-12-14T08:09:07.310Z,61.57
2022-12-14T08:11:35.902Z,60.82
2022-12-14T08:14:06.474Z,60.52
2022-12-14T08:16:34.855Z,59.53
2022-12-14T08:19:03.227Z,59.39
2022-12-14T08:21:32.283Z,59.12
2022-12-14T08:24:00.751Z,58.36
2022-12-14T08:26:35.246Z,58.25
2022-12-14T08:29:04.438Z,58.08
2022-12-14T08:31:33.234Z,57.27
2022-12-14T08:34:02.335Z,56.94
2022-12-14T08:36:33.351Z,56.66
2022-12-14T08:39:03.910Z,55.46
2022-12-14T08:41:33.307Z,53.99
2022-12-14T08:44:02.820Z,53.16
2022-12-14T08:46:33.811Z,52.35
2022-12-14T08:49:02.497Z,52.16
2022-12-14T08:51:30.713Z,51.34
2022-12-14T08:53:59.301Z,50.52
2022-12-14T08:56:28.457Z,49.38
2022-12-14T08:58:57.626Z,48.72
2022-12-14T09:01:32.984Z,48.02
2022-12-14T09:04:07.542Z,47.50
2022-12-14T09:06:37.747Z,47.04
2022-12-14T09:09:10.704Z,46.11
2022-12-14T09:11:43.839Z,46.14
2022-12-14T09:14:12.194Z,45.93
2022-12-14T09:16:40.494Z,45.72
2022-12-14T09:19:08.806Z,46.07
2022-12-14T09:21:37.786Z,46.64
2022-12-14T09:24:07.351Z,46.45
2022-12-14T09:26:35.810Z,45.53
2022-12-14T09:29:04.374Z,44.89
2022-12-14T09:31:32.503Z,45.24
2022-12-14T09:34:00.691Z,46.05
2022-12-14T09:36:29.175Z,46.24
2022-12-14T09:38:58.795Z,46.08
2022-12-14T09:41:46.555Z,46.02
2022-12-14T09:44:31.131Z,45.64
2022-12-14T09:47:06.583Z,45.27
2022-12-14T09:49:41.379Z,45.27
2022-12-14T09:52:15.631Z,45.17
2022-12-14T09:54:46.497Z,45.45
2022-12-14T09:57:27.459Z,45.53
2022-12-14T09:59:56.110Z,45.36
2022-12-14T10:02:34.776Z,45.35
2022-12-14T10:05:18.421Z,45.51
2022-12-14T10:07:56.674Z,45.25
2022-12-14T10:10:28.776Z,45.19
2022-12-14T10:13:10.378Z,44.98
2022-12-14T10:15:48.515Z,45.52
2022-12-14T10:18:59.089Z,45.72
2022-12-14T10:21:39.049Z,45.91
2022-12-14T10:24:15.427Z,45.57
2022-12-14T10:26:48.058Z,45.49
2022-12-14T10:29:25.683Z,45.70
2022-12-14T10:32:01.851Z,46.14
2022-12-14T10:34:32.075Z,46.89
2022-12-14T10:37:12.368Z,47.13
2022-12-14T10:39:51.218Z,47.39
2022-12-14T10:42:29.309Z,47.38
2022-12-14T10:45:38.992Z,47.65
2022-12-14T10:48:12.891Z,48.14
2022-12-14T10:50:53.617Z,48.35
2022-12-14T10:53:29.880Z,48.47
2022-12-14T10:56:04.002Z,48.60
2022-12-14T10:58:32.710Z,49.09
2022-12-14T11:01:01.121Z,49.29
2022-12-14T11:03:29.527Z,49.41
2022-12-14T11:06:02.470Z,49.99
2022-12-14T11:08:43.136Z,49.89
2022-12-14T11:11:21.196Z,50.29
2022-12-14T11:13:52.292Z,50.59
2022-12-14T11:16:32.057Z,50.83
2022-12-14T11:19:04.524Z,50.91
2022-12-14T11:21:35.573Z,51.32
2022-12-14T11:24:05.696Z,51.60
2022-12-14T11:26:37.868Z,52.31
2022-12-14T11:29:16.300Z,52.53
2022-12-14T11:31:47.475Z,52.85
2022-12-14T11:34:27.991Z,52.72
2022-12-14T11:36:56.360Z,52.96
2022-12-14T11:39:25.763Z,53.27
2022-12-14T11:42:03.977Z,53.25
2022-12-14T11:44:35.897Z,53.41
2022-12-14T11:47:11.287Z,53.83
2022-12-14T11:49:45.157Z,54.15
2022-12-14T11:52:16.515Z,54.63
2022-12-14T11:54:50.107Z,55.05
2022-12-14T11:57:26.128Z,55.24
2022-12-14T11:59:57.514Z,55.49
2022-12-14T12:02:29.397Z,55.37
2022-12-14T12:05:05.026Z,55.48
2022-12-14T12:07:36.020Z,55.72
2022-12-14T12:10:15.688Z,55.62
2022-12-14T12:12:54.117Z,56.16
2022-12-14T12:15:26.600Z,56.16
2022-12-14T12:18:00.361Z,56.51
2022-12-14T12:20:34.761Z,56.49
2022-12-14T12:23:07.651Z,56.81
2022-12-14T12:25:38.276Z,57.04
2022-12-14T12:28:17.695Z,57.26
2022-12-14T12:30:51.134Z,57.39
2022-12-14T12:33:27.923Z,57.38
2022-12-14T12:36:00.065Z,57.84
2022-12-14T12:38:49.497Z,57.86
2022-12-14T12:41:32.842Z,58.19
2022-12-14T12:44:11.768Z,58.39
2022-12-14T12:47:15.278Z,58.55
2022-12-14T12:49:38.637Z,58.92
2022-12-14T12:52:14.932Z,59.12
2022-12-14T12:54:52.352Z,59.46
2022-12-14T12:57:22.114Z,59.35
2022-12-14T12:59:54.930Z,59.27
2022-12-14T13:02:31.024Z,59.67
2022-12-14T13:05:29.055Z,59.59
2022-12-14T13:07:56.828Z,59.88
2022-12-14T13:10:29.607Z,59.78
2022-12-14T13:13:02.891Z,59.66
2022-12-14T13:15:35.842Z,59.93
2022-12-14T13:18:27.580Z,59.89
2022-12-14T13:21:05.715Z,60.28
2022-12-14T13:23:44.758Z,60.36
2022-12-14T13:26:56.690Z,60.51
2022-12-14T13:29:29.414Z,60.48
2022-12-14T13:32:05.970Z,60.51
2022-12-14T13:34:46.903Z,60.48
2022-12-14T13:37:37.824Z,60.91
2022-12-14T13:40:32.515Z,60.91
2022-12-14T13:43:14.568Z,60.94
2022-12-14T13:45:45.613Z,61.43
2022-12-14T13:48:24.082Z,61.53
2022-12-14T13:51:02.166Z,61.45
2022-12-14T13:53:36.056Z,61.41
2022-12-14T13:56:06.128Z,61.35
2022-12-14T13:58:39.378Z,61.33
2022-12-14T14:01:11.633Z,61.56
2022-12-14T14:03:51.359Z,61.95
2022-12-14T14:06:35.430Z,61.92
2022-12-14T14:09:36.167Z,62.15
2022-12-14T14:12:27.244Z,62.18
2022-12-14T14:14:58.331Z,62.31
2022-12-14T14:17:35.003Z,62.24
2022-12-14T14:20:34.048Z,62.40
2022-12-14T14:23:36.743Z,62.58
2022-12-14T14:26:29.418Z,62.57
2022-12-14T14:29:24.745Z,62.73
2022-12-14T14:31:56.080Z,62.66
2022-12-14T14:34:33.882Z,62.68
2022-12-14T14:37:23.036Z,62.79
2022-12-14T14:40:16.776Z,62.78
2022-12-14T14:42:53.819Z,63.04
2022-12-14T14:45:38.693Z,63.25
2022-12-14T14:48:21.621Z,63.20
2022-12-14T14:51:01.868Z,63.16
2022-12-14T14:53:32.518Z,63.24
2022-12-14T14:56:19.190Z,63.25
2022-12-14T14:58:47.589Z,63.40
2022-12-14T15:01:28.149Z,63.30
2022-12-14T15:04:05.789Z,63.63
2022-12-14T15:06:43.287Z,63.65
2022-12-14T15:09:19.817Z,63.65
2022-12-14T15:11:51.064Z,63.76
2022-12-14T15:14:32.262Z,63.85
2022-12-14T15:17:13.640Z,63.74
2022-12-14T15:19:48.174Z,63.74
2022-12-14T15:22:19.137Z,63.96
2022-12-14T15:24:50.446Z,63.80
2022-12-14T15:27:26.644Z,63.90
2022-12-14T15:29:58.370Z,63.95
2022-12-14T15:32:27.197Z,63.87
2022-12-14T15:34:57.434Z,64.11
2022-12-14T15:37:36.940Z,64.16
2022-12-14T15:40:12.200Z,64.20
2022-12-14T15:42:47.355Z,64.37
2022-12-14T15:45:16.632Z,64.18
2022-12-14T15:47:44.991Z,64.28
2022-12-14T15:50:23.014Z,64.07
2022-12-14T15:52:52.600Z,64.22
2022-12-14T15:55:38.800Z,64.35
2022-12-14T15:58:14.721Z,64.53
2022-12-14T16:00:46.697Z,64.70
2022-12-14T16:03:23.933Z,64.57
2022-12-14T16:05:53.058Z,64.46
2022-12-14T16:08:22.803Z,64.55
2022-12-14T16:10:53.348Z,64.37
2022-12-14T16:13:27.300Z,64.42
2022-12-14T16:15:57.725Z,64.20
2022-12-14T16:18:26.323Z,64.43
2022-12-14T16:21:00.148Z,64.41
2022-12-14T16:23:33.824Z,64.36
2022-12-14T16:26:18.433Z,64.51
2022-12-14T16:28:48.180Z,64.63
2022-12-14T16:31:19.894Z,64.61
2022-12-14T16:34:05.305Z,64.72
2022-12-14T16:36:36.557Z,64.65
2022-12-14T16:39:14.334Z,64.60
2022-12-14T16:41:54.618Z,64.72
2022-12-14T16:44:34.773Z,64.83
2022-12-14T16:47:26.016Z,64.81
2022-12-14T16:49:56.219Z,64.73
2022-12-14T16:52:26.582Z,64.90
2022-12-14T16:55:13.484Z,64.81
2022-12-14T16:57:50.924Z,64.60
2022-12-14T17:00:24.198Z,64.97
2022-12-14T17:02:58.914Z,64.81
2022-12-14T17:05:33.128Z,64.96
2022-12-14T17:08:01.476Z,64.87
2022-12-14T17:10:30.254Z,64.84
2022-12-14T17:12:59.651Z,65.08
2022-12-14T17:15:30.585Z,65.06
2022-12-14T17:18:01.656Z,65.02
2022-12-14T17:20:34.237Z,64.86
2022-12-14T17:23:04.324Z,64.60
2022-12-14T17:25:33.107Z,64.86
2022-12-14T17:28:01.318Z,64.76
2022-12-14T17:30:29.691Z,64.79
2022-12-14T17:32:58.465Z,64.82
2022-12-14T17:35:30.235Z,64.78
2022-12-14T17:37:58.918Z,64.46
2022-12-14T17:40:27.629Z,64.73
2022-12-14T17:42:58.431Z,64.70
2022-12-14T17:45:28.593Z,64.59
2022-12-14T17:47:57.808Z,64.44
2022-12-14T17:50:26.263Z,64.42
2022-12-14T17:52:54.931Z,64.45
2022-12-14T17:55:24.958Z,64.45
2022-12-14T17:57:53.952Z,64.28
2022-12-14T18:00:42.708Z,64.31
2022-12-14T18:03:12.458Z,64.17
2022-12-14T18:05:48.045Z,64.22
2022-12-14T18:08:17.272Z,64.35
2022-12-14T18:10:46.180Z,64.53
2022-12-14T18:13:14.900Z,64.61
2022-12-14T18:15:45.224Z,64.35
2022-12-14T18:18:19.899Z,64.21
2022-12-14T18:20:52.228Z,64.47
2022-12-14T18:23:21.166Z,64.51
2022-12-14T18:25:51.762Z,64.65
2022-12-14T18:28:21.542Z,64.68
2022-12-14T18:30:52.684Z,64.78
2022-12-14T18:33:23.516Z,64.83
2022-12-14T18:35:53.014Z,64.96
2022-12-14T18:38:21.594Z,64.75
2022-12-14T18:40:52.158Z,64.74
2022-12-14T18:43:23.174Z,65.01
2022-12-14T18:45:52.799Z,64.80
2022-12-14T18:48:21.757Z,64.74
2022-12-14T18:50:51.751Z,64.72
2022-12-14T18:53:22.260Z,64.66
2022-12-14T18:55:51.024Z,64.82
2022-12-14T18:58:21.426Z,64.85
2022-12-14T19:00:51.775Z,64.78
2022-12-14T19:03:20.287Z,64.93
2022-12-14T19:05:48.776Z,64.90
2022-12-14T19:08:17.625Z,64.70
2022-12-14T19:10:47.597Z,64.81
2022-12-14T19:13:26.123Z,65.10
2022-12-14T19:15:55.169Z,64.74
2022-12-14T19:18:24.062Z,64.69
2022-12-14T19:20:52.209Z,64.74
2022-12-14T19:23:20.525Z,64.74
2022-12-14T19:25:49.102Z,64.77
2022-12-14T19:28:33.505Z,64.97
2022-12-14T19:31:03.288Z,64.99
2022-12-14T19:33:32.347Z,64.96
2022-12-14T19:36:03.984Z,64.66
2022-12-14T19:38:33.873Z,65.01
2022-12-14T19:41:05.490Z,64.83
2022-12-14T19:43:34.708Z,64.99
2022-12-14T19:46:07.589Z,64.95
2022-12-14T19:48:37.214Z,64.91
2022-12-14T19:51:06.754Z,65.22
2022-12-14T19:53:35.553Z,65.26
2022-12-14T19:56:04.977Z,65.28
2022-12-14T19:58:33.239Z,65.21
2022-12-14T20:01:02.027Z,65.20
2022-12-14T20:03:30.837Z,65.15
2022-12-14T20:06:00.026Z,65.06
2022-12-14T20:08:30.098Z,65.12
2022-12-14T20:10:58.399Z,65.22
2022-12-14T20:13:28.827Z,65.24
2022-12-14T20:15:58.725Z,65.39
2022-12-14T20:18:27.911Z,65.21
2022-12-14T20:21:02.562Z,65.49
2022-12-14T20:23:34.791Z,65.63
2022-12-14T20:26:05.391Z,65.93
2022-12-14T20:28:34.081Z,65.88
2022-12-14T20:31:06.406Z,66.12
2022-12-14T20:33:35.154Z,66.19
2022-12-14T20:36:04.832Z,66.14
2022-12-14T20:38:33.752Z,66.12
2022-12-14T20:41:05.890Z,66.28
2022-12-14T20:43:35.552Z,66.32
2022-12-14T20:46:04.984Z,66.44
2022-12-14T20:48:33.442Z,66.41
2022-12-14T20:51:02.954Z,66.58
2022-12-14T20:53:32.075Z,66.47
2022-12-14T20:56:04.238Z,66.68
2022-12-14T20:58:32.286Z,66.63
2022-12-14T21:01:06.838Z,66.85
2022-12-14T21:03:35.889Z,66.89
2022-12-14T21:06:05.676Z,66.87
2022-12-14T21:08:51.896Z,67.00
2022-12-14T21:11:38.950Z,67.17
2022-12-14T21:14:07.128Z,67.07
2022-12-14T21:16:35.605Z,66.96
2022-12-14T21:19:04.466Z,66.92
2022-12-14T21:21:32.939Z,67.04
2022-12-14T21:24:01.109Z,67.03
2022-12-14T21:26:29.230Z,67.13
2022-12-14T21:28:57.692Z,67.34
2022-12-14T21:31:25.907Z,67.39
2022-12-14T21:33:55.160Z,67.25
2022-12-14T21:36:23.445Z,67.43
2022-12-14T21:38:52.537Z,67.39
2022-12-14T21:41:39.242Z,67.20
2022-12-14T21:44:07.623Z,67.22
2022-12-14T21:46:36.268Z,67.15
2022-12-14T21:49:06.054Z,67.39
2022-12-14T21:51:34.576Z,67.45
2022-12-14T21:54:03.617Z,67.80
2022-12-14T21:56:51.321Z,67.94
2022-12-14T21:59:25.284Z,67.69
2022-12-14T22:01:54.705Z,67.73
2022-12-14T22:04:23.949Z,67.80
2022-12-14T22:06:52.549Z,67.64
2022-12-14T22:09:21.299Z,67.90
2022-12-14T22:11:49.910Z,68.09
2022-12-14T22:14:19.853Z,67.69
2022-12-14T22:16:48.577Z,68.05
2022-12-14T22:19:19.056Z,67.68
2022-12-14T22:21:47.841Z,67.84
2022-12-14T22:24:17.430Z,67.79
2022-12-14T22:26:46.020Z,67.91
2022-12-14T22:29:15.849Z,67.73
2022-12-14T22:31:44.431Z,67.59
2022-12-14T22:34:16.589Z,67.82
2022-12-14T22:36:45.010Z,67.70
2022-12-14T22:39:14.003Z,67.65
2022-12-14T22:41:42.445Z,67.46
2022-12-14T22:44:12.255Z,67.79
2022-12-14T22:46:41.050Z,67.58
2022-12-14T22:49:10.251Z,67.86
2022-12-14T22:51:38.427Z,67.87
2022-12-14T22:54:06.747Z,67.98
2022-12-14T22:56:41.044Z,67.97
2022-12-14T22:59:14.693Z,67.93
2022-12-14T23:01:43.655Z,67.92
2022-12-14T23:04:18.030Z,68.07
2022-12-14T23:06:46.345Z,68.14
2022-12-14T23:09:32.871Z,67.95
2022-12-14T23:12:21.905Z,68.01
2022-12-14T23:15:08.696Z,68.16
2022-12-14T23:17:55.624Z,67.88
2022-12-14T23:20:41.940Z,67.92
2022-12-14T23:23:28.767Z,68.03
2022-12-14T23:26:20.080Z,67.88
2022-12-14T23:29:06.469Z,67.77
2022-12-14T23:31:53.277Z,68.02
2022-12-14T23:34:39.753Z,67.90
2022-12-14T23:37:26.473Z,68.08
2022-12-14T23:40:12.882Z,68.16
2022-12-14T23:43:00.101Z,67.98
2022-12-14T23:45:46.344Z,68.22
2022-12-14T23:48:33.140Z,68.18
2022-12-14T23:51:20.659Z,68.38
2022-12-14T23:54:07.163Z,68.60
2022-12-14T23:56:54.719Z,68.33
2022-12-14T23:59:41.108Z,68.38
